메인 페이지
METAR-TAF:

METAR-TAF

공항 :

샌프란시스코 국제공항

샌프란시스코, 캘리포니아, 미국

위도: 37-37-11N, 경도: 122-21-53W, 고도: 3m

현재 날씨관측

예보는 36분 전, 06:56시(UTC)에 발표되었습니다.
13kt
온도 10°C
습도 82%
기압 1017 hPa
시정: 14.5km
맑음

METAR: KSFO 210656Z 28013KT 9SM CLR 10/07 A3002 RMK AO2 PK WND 27027/0601 SLP165 T01000072

시각: 00:32 (07:32 UTC)

예보

예보는 1 시간 47분 전, 05:45시(UTC)에 발표되었습니다.
예보 대상 시간: 21일 06시부터 22일 12시까지 (UTC)
18kt
시정: 10km
고도 1500ft 상공 구름 조금
21일 1000시부터 (UTC)
8kt
시정: 10km
고도 1500ft 상공 구름 보통
고도 2000ft 상공 구름 보통
일시적
21일 12시부터 21일 16시까지 (UTC)
고도 1200ft 상공 구름 보통
고도 2000ft 상공 구름 많음
21일 1800시부터 (UTC)
북서8kt
시정: 10km
맑음
21일 2100시부터 (UTC)
17kt
시정: 10km
고도 1200ft 상공 구름 조금
21일 2300시부터 (UTC)
22kt, 순간 최대 풍속 28kt
시정: 10km
고도 1200ft 상공 구름 조금
22일 0400시부터 (UTC)
17kt
시정: 10km
고도 1200ft 상공 구름 보통
22일 1000시부터 (UTC)
서북서8kt
시정: 10km
고도 1200ft 상공 구름 조금

TAF: KSFO 210545Z 2106/2212 27018KT P6SM FEW015 FM211000 26008KT P6SM SCT015 SCT020 TEMPO 2112/2116 SCT012 BKN020 FM211800 32008KT P6SM SKC FM212100 28017KT P6SM FEW012 FM212300 27022G28KT P6SM FEW012 FM220400 28017KT P6SM SCT012 FM221000 29008KT P6SM FEW012

4,000개 이상의 공항 관측 자료 및 예보 (METAR 및 TAF 보고).

지도상에서 검색 가능한 기상관측소가 노란 점과 빨간 점으로 표시되어 있습니다.

기상관측소 명을 보려면 표시 위로 마우스를 이동하세요.

날씨 관측과 예보를 보려면 클릭하세요.

지도 변경 : 확대하려면 엑스 표시가 있는 녹색 버튼, 축소하려면 빼기 표시가 있는 녹색 버튼, 다음 페이지의 지도를 보려면 녹색 화살표를 클릭하세요.


METAR-TAF: